Disclaimer

Please do not use the information listed here in-flight or in-navigation, as they are not provided to us by the airports but are provided by volunteers, so they might be outdated.

Search


Regions


Airport information page

Radio informations:
DINARD TWR - 120.15 MHz
DINARD ATIS - 124.575 MHz

Airport informations:
Latitude: 48° 35' 15.66" N
Longitude: 002° 04' 47.85" W
Elevation: 219 feet - 67 meters
Operating hours: Remarks
Operating agency: Civil government, landing fees and diplomatic clearance may be required
Timezone: UTC+1(+2DT) - Last Sunday in March to last Sunday in October
Fuel: Jet A1, without icing nhibitor.

100/130 MIL Spec, low lead, aviation gasoline (BLUE)

Runway information:
12/30 - 4708 x 148 feet< - >1435 x 45 meters
17/35 - 7218 x 148 feet< - >2200 x 45 meters

Recent METARs:
LFRD 160830Z AUTO 18008KT CAVOK 05/05 Q1009 TEMPO 4000 SHRA BKN025TCU
LFRD 160900Z AUTO 19010KT CAVOK 06/06 Q1009 TEMPO 4000 SHRA BKN025TCU
LFRD 160930Z AUTO 18009KT CAVOK 07/07 Q1009 TEMPO 4000 SHRA BKN025TCU

Airport on the map: